Lachine, MI (49753)

4:56 PM EST on February 11, 2016 (GMT -0500)
Alpena County Regional | | Change Station
CLOSE
Current Station
Airport
Location: Alpena,
Elevation: 689 ft
Nearby Weather Stations

Elev 689 ft 45.07 °N, 83.56 °W | Updated 1 hour ago

Mostly Cloudy
Mostly Cloudy
16 °F
Feels Like 6 °F
N
7
Wind Variable Wind from Variable

Today
High -- | Low -- °F
--% Chance of Precip.
Yesterday
High -- | Low -- °F
Precip. -- in
Pressure 30.19 in
Visibility 10.0 miles
Clouds Scattered Clouds 4900 ft
Windchill 6 °F
Dew Point 0 °F
Humidity 49%
Rainfall 0.01 in
Snow Depth Not available.
7:42 AM 5:56 PM
Waxing Crescent, 14% visible
METAR KAPN 112054Z AUTO VRB06KT 10SM SCT049 M09/M18 A3014 RMK AO2 SLP223 T10891178 56012
Pressure 30.19 in
Visibility 10.0 miles
Clouds Scattered Clouds 4900 ft
Windchill 6 °F
Dew Point 0 °F
Humidity 49%
Rainfall 0.01 in
Snow Depth Not available.
7:42 AM 5:56 PM
Waxing Crescent, 14% visible
METAR KAPN 112054Z AUTO VRB06KT 10SM SCT049 M09/M18 A3014 RMK AO2 SLP223 T10891178 56012

10-Day Weather Forecast

Almanac

Astronomy

Feb. 11, 2016 Rise Set
Actual Time
Civil Twilight
Nautical Twilight
Astronomical Twilight
Moon
Length of Visible Light
Length of Day
Tomorrow will be .
, % of the Moon is Illuminated

Today's Extremes

State Highs State Lows

Community

WunderPhotos

Upload Photos

1,892,165 photos uploaded!

WunderBlog® & News

Nearby

Air Quality

  Air Quality AQ Index Pollutant
Not available.

Snow Depth

Station Depth Elevation

Earthquake Activity

City Distance Mag. Time & Date
Minimum magnitude displayed is 2.5.

Coastal Water Temperatures

Place Temperature

Stations

Nearby Weather Stations

Station Location Temp. Windchill Dew Point Humidity Wind Precip. Elev Updated Type
                   

Watches & Warnings

There are currently no watches in effect.